sensor_id;sensor_type;location;lat;lon;timestamp;P1;durP1;ratioP1;P2;durP2;ratioP2
16735;SDS011;17990;49.548;9.730;2023-07-31T00:00:38;4.17;;;1.20;;
16735;SDS011;17990;49.548;9.730;2023-07-31T00:03:05;5.30;;;1.30;;
16735;SDS011;17990;49.548;9.730;2023-07-31T00:05:31;3.40;;;1.40;;
16735;SDS011;17990;49.548;9.730;2023-07-31T00:07:58;3.97;;;1.17;;
16735;SDS011;17990;49.548;9.730;2023-07-31T00:10:25;3.80;;;1.17;;
16735;SDS011;17990;49.548;9.730;2023-07-31T00:12:53;4.13;;;1.30;;
16735;SDS011;17990;49.548;9.730;2023-07-31T00:15:19;3.93;;;1.13;;
16735;SDS011;17990;49.548;9.730;2023-07-31T00:17:46;4.40;;;1.30;;
16735;SDS011;17990;49.548;9.730;2023-07-31T00:20:13;6.43;;;1.60;;
16735;SDS011;17990;49.548;9.730;2023-07-31T00:22:39;3.23;;;1.30;;
16735;SDS011;17990;49.548;9.730;2023-07-31T00:25:06;3.67;;;1.30;;
16735;SDS011;17990;49.548;9.730;2023-07-31T00:27:33;2.50;;;1.20;;
16735;SDS011;17990;49.548;9.730;2023-07-31T00:30:01;3.40;;;1.20;;
16735;SDS011;17990;49.548;9.730;2023-07-31T00:32:29;3.80;;;1.40;;
16735;SDS011;17990;49.548;9.730;2023-07-31T00:34:56;3.03;;;1.30;;
16735;SDS011;17990;49.548;9.730;2023-07-31T00:37:22;3.67;;;1.23;;
16735;SDS011;17990;49.548;9.730;2023-07-31T00:39:49;3.07;;;1.23;;
16735;SDS011;17990;49.548;9.730;2023-07-31T00:42:16;6.20;;;1.50;;
16735;SDS011;17990;49.548;9.730;2023-07-31T00:44:42;3.97;;;1.43;;
16735;SDS011;17990;49.548;9.730;2023-07-31T00:47:10;4.03;;;1.40;;
16735;SDS011;17990;49.548;9.730;2023-07-31T00:49:37;4.80;;;1.47;;
16735;SDS011;17990;49.548;9.730;2023-07-31T00:52:04;3.33;;;1.10;;
16735;SDS011;17990;49.548;9.730;2023-07-31T00:54:31;6.00;;;1.33;;
16735;SDS011;17990;49.548;9.730;2023-07-31T00:56:58;4.07;;;1.13;;
16735;SDS011;17990;49.548;9.730;2023-07-31T00:59:26;5.30;;;1.40;;
16735;SDS011;17990;49.548;9.730;2023-07-31T01:01:52;3.63;;;1.30;;
16735;SDS011;17990;49.548;9.730;2023-07-31T01:04:21;2.93;;;1.20;;
16735;SDS011;17990;49.548;9.730;2023-07-31T01:06:49;5.87;;;1.40;;
16735;SDS011;17990;49.548;9.730;2023-07-31T01:09:23;7.03;;;1.90;;
16735;SDS011;17990;49.548;9.730;2023-07-31T01:11:56;4.40;;;1.50;;
16735;SDS011;17990;49.548;9.730;2023-07-31T01:14:26;4.87;;;1.40;;
16735;SDS011;17990;49.548;9.730;2023-07-31T01:16:53;4.43;;;1.23;;
16735;SDS011;17990;49.548;9.730;2023-07-31T01:19:21;4.40;;;1.03;;
16735;SDS011;17990;49.548;9.730;2023-07-31T01:21:56;3.87;;;1.30;;
16735;SDS011;17990;49.548;9.730;2023-07-31T01:24:43;4.30;;;1.47;;
16735;SDS011;17990;49.548;9.730;2023-07-31T01:27:23;4.17;;;1.20;;
16735;SDS011;17990;49.548;9.730;2023-07-31T01:29:53;4.30;;;1.40;;
16735;SDS011;17990;49.548;9.730;2023-07-31T01:32:26;4.07;;;1.37;;
16735;SDS011;17990;49.548;9.730;2023-07-31T01:34:55;3.73;;;1.40;;
16735;SDS011;17990;49.548;9.730;2023-07-31T01:37:27;5.93;;;1.63;;
16735;SDS011;17990;49.548;9.730;2023-07-31T01:39:54;4.43;;;1.37;;
16735;SDS011;17990;49.548;9.730;2023-07-31T01:42:22;3.50;;;1.30;;
16735;SDS011;17990;49.548;9.730;2023-07-31T01:44:49;3.10;;;1.03;;
16735;SDS011;17990;49.548;9.730;2023-07-31T01:47:16;3.80;;;1.30;;
16735;SDS011;17990;49.548;9.730;2023-07-31T01:49:42;4.53;;;1.57;;
16735;SDS011;17990;49.548;9.730;2023-07-31T01:52:09;5.33;;;1.40;;
16735;SDS011;17990;49.548;9.730;2023-07-31T01:54:36;3.90;;;1.47;;
16735;SDS011;17990;49.548;9.730;2023-07-31T01:57:03;3.13;;;1.13;;
16735;SDS011;17990;49.548;9.730;2023-07-31T01:59:31;3.57;;;1.47;;
16735;SDS011;17990;49.548;9.730;2023-07-31T02:01:57;5.47;;;1.30;;
16735;SDS011;17990;49.548;9.730;2023-07-31T02:04:24;4.10;;;1.40;;
16735;SDS011;17990;49.548;9.730;2023-07-31T02:06:52;4.60;;;1.30;;
16735;SDS011;17990;49.548;9.730;2023-07-31T02:09:19;3.40;;;1.50;;
16735;SDS011;17990;49.548;9.730;2023-07-31T02:11:46;6.57;;;1.33;;
16735;SDS011;17990;49.548;9.730;2023-07-31T02:14:12;4.20;;;1.30;;
16735;SDS011;17990;49.548;9.730;2023-07-31T02:16:40;3.77;;;1.27;;
16735;SDS011;17990;49.548;9.730;2023-07-31T02:19:07;3.90;;;1.40;;
16735;SDS011;17990;49.548;9.730;2023-07-31T02:21:34;6.53;;;1.33;;
16735;SDS011;17990;49.548;9.730;2023-07-31T02:24:01;4.57;;;1.20;;
16735;SDS011;17990;49.548;9.730;2023-07-31T02:26:27;4.80;;;1.53;;
16735;SDS011;17990;49.548;9.730;2023-07-31T02:28:54;5.30;;;1.33;;
16735;SDS011;17990;49.548;9.730;2023-07-31T02:31:21;3.17;;;1.23;;
16735;SDS011;17990;49.548;9.730;2023-07-31T02:33:49;5.23;;;1.40;;
16735;SDS011;17990;49.548;9.730;2023-07-31T02:36:15;3.97;;;1.50;;
16735;SDS011;17990;49.548;9.730;2023-07-31T02:38:42;3.63;;;1.33;;
16735;SDS011;17990;49.548;9.730;2023-07-31T02:41:09;3.77;;;1.20;;
16735;SDS011;17990;49.548;9.730;2023-07-31T02:43:36;3.77;;;1.40;;
16735;SDS011;17990;49.548;9.730;2023-07-31T02:46:02;5.07;;;1.73;;
16735;SDS011;17990;49.548;9.730;2023-07-31T02:48:29;4.00;;;1.40;;
16735;SDS011;17990;49.548;9.730;2023-07-31T02:50:57;4.13;;;1.40;;
16735;SDS011;17990;49.548;9.730;2023-07-31T02:53:24;3.80;;;1.33;;
16735;SDS011;17990;49.548;9.730;2023-07-31T02:55:50;3.90;;;1.67;;
16735;SDS011;17990;49.548;9.730;2023-07-31T02:58:17;4.83;;;1.30;;
16735;SDS011;17990;49.548;9.730;2023-07-31T03:00:44;4.30;;;1.30;;
16735;SDS011;17990;49.548;9.730;2023-07-31T03:03:11;4.93;;;1.40;;
16735;SDS011;17990;49.548;9.730;2023-07-31T03:05:37;5.73;;;1.50;;
16735;SDS011;17990;49.548;9.730;2023-07-31T03:08:05;4.90;;;1.57;;
16735;SDS011;17990;49.548;9.730;2023-07-31T03:10:32;3.93;;;1.30;;
16735;SDS011;17990;49.548;9.730;2023-07-31T03:12:59;5.53;;;1.77;;
16735;SDS011;17990;49.548;9.730;2023-07-31T03:15:26;4.07;;;1.53;;
16735;SDS011;17990;49.548;9.730;2023-07-31T03:17:52;4.83;;;1.40;;
16735;SDS011;17990;49.548;9.730;2023-07-31T03:20:19;5.87;;;1.47;;
16735;SDS011;17990;49.548;9.730;2023-07-31T03:22:49;3.17;;;1.00;;
16735;SDS011;17990;49.548;9.730;2023-07-31T03:25:17;3.50;;;1.20;;
16735;SDS011;17990;49.548;9.730;2023-07-31T03:27:44;5.00;;;1.50;;
16735;SDS011;17990;49.548;9.730;2023-07-31T03:30:11;2.67;;;1.27;;
16735;SDS011;17990;49.548;9.730;2023-07-31T03:32:37;5.60;;;1.47;;
16735;SDS011;17990;49.548;9.730;2023-07-31T03:35:05;3.13;;;1.50;;
16735;SDS011;17990;49.548;9.730;2023-07-31T03:37:32;4.77;;;1.40;;
16735;SDS011;17990;49.548;9.730;2023-07-31T03:39:58;6.07;;;1.70;;
16735;SDS011;17990;49.548;9.730;2023-07-31T03:42:26;4.53;;;1.57;;
16735;SDS011;17990;49.548;9.730;2023-07-31T03:44:53;6.23;;;1.70;;
16735;SDS011;17990;49.548;9.730;2023-07-31T03:47:20;4.10;;;1.63;;
16735;SDS011;17990;49.548;9.730;2023-07-31T03:49:46;5.20;;;1.50;;
16735;SDS011;17990;49.548;9.730;2023-07-31T03:52:13;5.13;;;1.60;;
16735;SDS011;17990;49.548;9.730;2023-07-31T03:54:40;4.30;;;1.43;;
16735;SDS011;17990;49.548;9.730;2023-07-31T03:57:06;5.23;;;1.30;;
16735;SDS011;17990;49.548;9.730;2023-07-31T03:59:34;3.87;;;1.67;;
16735;SDS011;17990;49.548;9.730;2023-07-31T04:02:03;6.87;;;1.70;;
16735;SDS011;17990;49.548;9.730;2023-07-31T04:04:30;4.97;;;1.40;;
16735;SDS011;17990;49.548;9.730;2023-07-31T04:06:57;4.77;;;1.60;;
16735;SDS011;17990;49.548;9.730;2023-07-31T04:09:23;3.63;;;1.40;;
16735;SDS011;17990;49.548;9.730;2023-07-31T04:11:50;5.23;;;1.30;;
16735;SDS011;17990;49.548;9.730;2023-07-31T04:14:17;5.93;;;1.37;;
16735;SDS011;17990;49.548;9.730;2023-07-31T04:16:45;3.73;;;1.53;;
16735;SDS011;17990;49.548;9.730;2023-07-31T04:19:12;5.87;;;1.57;;
16735;SDS011;17990;49.548;9.730;2023-07-31T04:21:41;2.97;;;1.83;;
16735;SDS011;17990;49.548;9.730;2023-07-31T04:24:08;2.90;;;1.30;;
16735;SDS011;17990;49.548;9.730;2023-07-31T04:26:35;3.70;;;1.43;;
16735;SDS011;17990;49.548;9.730;2023-07-31T04:29:01;3.87;;;1.40;;
16735;SDS011;17990;49.548;9.730;2023-07-31T04:31:28;7.17;;;1.73;;
16735;SDS011;17990;49.548;9.730;2023-07-31T04:33:56;5.20;;;1.30;;
16735;SDS011;17990;49.548;9.730;2023-07-31T04:36:23;5.37;;;1.80;;
16735;SDS011;17990;49.548;9.730;2023-07-31T04:38:50;7.87;;;1.53;;
16735;SDS011;17990;49.548;9.730;2023-07-31T04:41:16;3.87;;;1.53;;
16735;SDS011;17990;49.548;9.730;2023-07-31T04:43:43;4.53;;;1.50;;
16735;SDS011;17990;49.548;9.730;2023-07-31T04:46:10;4.97;;;1.30;;
16735;SDS011;17990;49.548;9.730;2023-07-31T04:48:36;5.90;;;1.37;;
16735;SDS011;17990;49.548;9.730;2023-07-31T04:51:04;3.57;;;1.40;;
16735;SDS011;17990;49.548;9.730;2023-07-31T04:53:31;5.63;;;1.57;;
16735;SDS011;17990;49.548;9.730;2023-07-31T04:55:58;5.40;;;1.67;;
16735;SDS011;17990;49.548;9.730;2023-07-31T04:58:25;5.30;;;1.50;;
16735;SDS011;17990;49.548;9.730;2023-07-31T05:00:52;4.00;;;1.20;;
16735;SDS011;17990;49.548;9.730;2023-07-31T05:03:18;4.20;;;1.50;;
16735;SDS011;17990;49.548;9.730;2023-07-31T05:05:45;4.73;;;1.70;;
16735;SDS011;17990;49.548;9.730;2023-07-31T05:08:13;4.77;;;1.40;;
16735;SDS011;17990;49.548;9.730;2023-07-31T05:10:42;3.43;;;1.10;;
16735;SDS011;17990;49.548;9.730;2023-07-31T05:13:09;4.23;;;1.20;;
16735;SDS011;17990;49.548;9.730;2023-07-31T05:15:36;6.43;;;1.63;;
16735;SDS011;17990;49.548;9.730;2023-07-31T05:18:02;6.03;;;1.27;;
16735;SDS011;17990;49.548;9.730;2023-07-31T05:20:29;5.47;;;1.50;;
16735;SDS011;17990;49.548;9.730;2023-07-31T05:22:56;5.03;;;1.60;;
16735;SDS011;17990;49.548;9.730;2023-07-31T05:25:24;2.83;;;1.30;;
16735;SDS011;17990;49.548;9.730;2023-07-31T05:27:51;4.07;;;1.80;;
16735;SDS011;17990;49.548;9.730;2023-07-31T05:30:17;6.63;;;1.30;;
16735;SDS011;17990;49.548;9.730;2023-07-31T05:32:44;2.47;;;1.13;;
16735;SDS011;17990;49.548;9.730;2023-07-31T05:35:11;4.23;;;1.27;;
16735;SDS011;17990;49.548;9.730;2023-07-31T05:37:38;6.27;;;1.70;;
16735;SDS011;17990;49.548;9.730;2023-07-31T05:40:05;3.23;;;1.30;;
16735;SDS011;17990;49.548;9.730;2023-07-31T05:42:34;3.13;;;1.27;;
16735;SDS011;17990;49.548;9.730;2023-07-31T05:45:03;7.90;;;1.50;;
16735;SDS011;17990;49.548;9.730;2023-07-31T05:47:31;4.60;;;1.27;;
16735;SDS011;17990;49.548;9.730;2023-07-31T05:49:57;7.70;;;1.70;;
16735;SDS011;17990;49.548;9.730;2023-07-31T05:52:24;5.10;;;1.53;;
16735;SDS011;17990;49.548;9.730;2023-07-31T05:54:51;3.97;;;1.45;;
16735;SDS011;17990;49.548;9.730;2023-07-31T05:57:17;4.38;;;1.63;;
16735;SDS011;17990;49.548;9.730;2023-07-31T05:59:45;4.18;;;1.38;;
16735;SDS011;17990;49.548;9.730;2023-07-31T06:02:12;2.30;;;1.45;;
16735;SDS011;17990;49.548;9.730;2023-07-31T06:04:39;3.58;;;1.55;;
16735;SDS011;17990;49.548;9.730;2023-07-31T06:07:06;7.07;;;2.17;;
16735;SDS011;17990;49.548;9.730;2023-07-31T06:09:32;4.95;;;1.75;;
16735;SDS011;17990;49.548;9.730;2023-07-31T06:11:59;4.30;;;1.40;;
16735;SDS011;17990;49.548;9.730;2023-07-31T06:14:26;3.25;;;1.60;;
16735;SDS011;17990;49.548;9.730;2023-07-31T06:16:54;3.83;;;1.38;;
16735;SDS011;17990;49.548;9.730;2023-07-31T06:19:20;5.55;;;1.80;;
16735;SDS011;17990;49.548;9.730;2023-07-31T06:21:47;3.80;;;1.40;;
16735;SDS011;17990;49.548;9.730;2023-07-31T06:24:14;4.05;;;1.65;;
16735;SDS011;17990;49.548;9.730;2023-07-31T06:26:44;3.40;;;1.67;;
16735;SDS011;17990;49.548;9.730;2023-07-31T06:29:10;6.35;;;1.77;;
16735;SDS011;17990;49.548;9.730;2023-07-31T06:31:37;4.18;;;1.45;;
16735;SDS011;17990;49.548;9.730;2023-07-31T06:34:05;7.03;;;2.00;;
16735;SDS011;17990;49.548;9.730;2023-07-31T06:36:32;7.55;;;1.70;;
16735;SDS011;17990;49.548;9.730;2023-07-31T06:38:59;4.40;;;1.90;;
16735;SDS011;17990;49.548;9.730;2023-07-31T06:41:25;5.38;;;1.48;;
16735;SDS011;17990;49.548;9.730;2023-07-31T06:43:52;5.50;;;1.60;;
16735;SDS011;17990;49.548;9.730;2023-07-31T06:46:19;4.35;;;1.77;;
16735;SDS011;17990;49.548;9.730;2023-07-31T06:48:45;5.28;;;1.60;;
16735;SDS011;17990;49.548;9.730;2023-07-31T06:51:13;4.38;;;1.45;;
16735;SDS011;17990;49.548;9.730;2023-07-31T06:53:40;4.90;;;1.75;;
16735;SDS011;17990;49.548;9.730;2023-07-31T06:56:10;5.68;;;1.90;;
16735;SDS011;17990;49.548;9.730;2023-07-31T06:58:36;7.97;;;1.90;;
16735;SDS011;17990;49.548;9.730;2023-07-31T07:01:03;3.05;;;1.40;;
16735;SDS011;17990;49.548;9.730;2023-07-31T07:03:30;3.92;;;1.80;;
16735;SDS011;17990;49.548;9.730;2023-07-31T07:05:57;4.88;;;1.52;;
16735;SDS011;17990;49.548;9.730;2023-07-31T07:08:25;3.22;;;1.30;;
16735;SDS011;17990;49.548;9.730;2023-07-31T07:10:52;6.70;;;1.80;;
16735;SDS011;17990;49.548;9.730;2023-07-31T07:13:18;3.63;;;1.45;;
16735;SDS011;17990;49.548;9.730;2023-07-31T07:15:47;4.57;;;1.83;;
16735;SDS011;17990;49.548;9.730;2023-07-31T07:18:14;3.65;;;1.70;;
16735;SDS011;17990;49.548;9.730;2023-07-31T07:20:45;2.97;;;1.42;;
16735;SDS011;17990;49.548;9.730;2023-07-31T07:23:12;4.05;;;1.38;;
16735;SDS011;17990;49.548;9.730;2023-07-31T07:25:40;5.30;;;1.70;;
16735;SDS011;17990;49.548;9.730;2023-07-31T07:28:07;4.50;;;1.75;;
16735;SDS011;17990;49.548;9.730;2023-07-31T07:30:34;7.38;;;1.60;;
16735;SDS011;17990;49.548;9.730;2023-07-31T07:33:01;4.07;;;1.60;;
16735;SDS011;17990;49.548;9.730;2023-07-31T07:35:28;4.30;;;1.63;;
16735;SDS011;17990;49.548;9.730;2023-07-31T07:37:55;4.30;;;2.08;;
16735;SDS011;17990;49.548;9.730;2023-07-31T07:40:21;4.57;;;1.85;;
16735;SDS011;17990;49.548;9.730;2023-07-31T07:42:49;4.07;;;1.63;;
16735;SDS011;17990;49.548;9.730;2023-07-31T07:45:16;5.15;;;1.60;;
16735;SDS011;17990;49.548;9.730;2023-07-31T07:47:43;3.35;;;1.50;;
16735;SDS011;17990;49.548;9.730;2023-07-31T07:50:10;5.20;;;1.98;;
16735;SDS011;17990;49.548;9.730;2023-07-31T07:52:37;5.15;;;2.03;;
16735;SDS011;17990;49.548;9.730;2023-07-31T07:55:03;4.35;;;1.83;;
16735;SDS011;17990;49.548;9.730;2023-07-31T07:57:31;4.72;;;1.70;;
16735;SDS011;17990;49.548;9.730;2023-07-31T07:59:59;7.28;;;2.10;;
16735;SDS011;17990;49.548;9.730;2023-07-31T08:02:26;3.28;;;1.70;;
16735;SDS011;17990;49.548;9.730;2023-07-31T08:04:52;3.55;;;1.50;;
16735;SDS011;17990;49.548;9.730;2023-07-31T08:07:19;6.65;;;2.10;;
16735;SDS011;17990;49.548;9.730;2023-07-31T08:09:46;5.05;;;2.00;;
16735;SDS011;17990;49.548;9.730;2023-07-31T08:12:12;5.25;;;1.88;;
16735;SDS011;17990;49.548;9.730;2023-07-31T08:14:39;4.40;;;1.75;;
16735;SDS011;17990;49.548;9.730;2023-07-31T08:17:07;5.22;;;2.20;;
16735;SDS011;17990;49.548;9.730;2023-07-31T08:19:34;4.05;;;1.30;;
16735;SDS011;17990;49.548;9.730;2023-07-31T08:22:00;4.38;;;1.70;;
16735;SDS011;17990;49.548;9.730;2023-07-31T08:24:27;6.50;;;2.13;;
16735;SDS011;17990;49.548;9.730;2023-07-31T08:26:54;4.00;;;2.00;;
16735;SDS011;17990;49.548;9.730;2023-07-31T08:29:21;4.28;;;1.80;;
16735;SDS011;17990;49.548;9.730;2023-07-31T08:31:47;3.45;;;1.77;;
16735;SDS011;17990;49.548;9.730;2023-07-31T08:34:15;5.22;;;1.80;;
16735;SDS011;17990;49.548;9.730;2023-07-31T08:36:42;4.47;;;2.00;;
16735;SDS011;17990;49.548;9.730;2023-07-31T08:39:09;5.40;;;2.00;;
16735;SDS011;17990;49.548;9.730;2023-07-31T08:41:37;4.28;;;1.88;;
16735;SDS011;17990;49.548;9.730;2023-07-31T08:44:04;4.82;;;2.00;;
16735;SDS011;17990;49.548;9.730;2023-07-31T08:46:32;3.92;;;1.80;;
16735;SDS011;17990;49.548;9.730;2023-07-31T08:48:59;4.38;;;2.05;;
16735;SDS011;17990;49.548;9.730;2023-07-31T08:51:29;4.95;;;1.60;;
16735;SDS011;17990;49.548;9.730;2023-07-31T08:53:56;4.13;;;1.70;;
16735;SDS011;17990;49.548;9.730;2023-07-31T08:56:23;5.88;;;2.25;;
16735;SDS011;17990;49.548;9.730;2023-07-31T08:58:51;5.78;;;2.05;;
16735;SDS011;17990;49.548;9.730;2023-07-31T09:01:19;5.63;;;1.88;;
16735;SDS011;17990;49.548;9.730;2023-07-31T09:03:46;7.30;;;2.00;;
16735;SDS011;17990;49.548;9.730;2023-07-31T09:06:15;4.78;;;1.70;;
16735;SDS011;17990;49.548;9.730;2023-07-31T09:08:45;5.47;;;2.00;;
16735;SDS011;17990;49.548;9.730;2023-07-31T09:11:12;4.18;;;2.00;;
16735;SDS011;17990;49.548;9.730;2023-07-31T09:13:40;5.35;;;1.75;;
16735;SDS011;17990;49.548;9.730;2023-07-31T09:16:08;5.60;;;2.05;;
16735;SDS011;17990;49.548;9.730;2023-07-31T09:18:35;7.35;;;2.20;;
16735;SDS011;17990;49.548;9.730;2023-07-31T09:21:19;5.03;;;2.13;;
16735;SDS011;17990;49.548;9.730;2023-07-31T09:23:47;5.55;;;2.40;;
16735;SDS011;17990;49.548;9.730;2023-07-31T09:26:28;4.63;;;2.00;;
16735;SDS011;17990;49.548;9.730;2023-07-31T09:28:56;5.35;;;2.10;;
16735;SDS011;17990;49.548;9.730;2023-07-31T09:31:31;4.07;;;1.75;;
16735;SDS011;17990;49.548;9.730;2023-07-31T09:34:05;4.10;;;2.08;;
16735;SDS011;17990;49.548;9.730;2023-07-31T09:36:31;5.78;;;2.20;;
16735;SDS011;17990;49.548;9.730;2023-07-31T09:39:02;4.97;;;2.20;;
16735;SDS011;17990;49.548;9.730;2023-07-31T09:41:30;4.25;;;2.00;;
16735;SDS011;17990;49.548;9.730;2023-07-31T09:43:56;4.93;;;1.98;;
16735;SDS011;17990;49.548;9.730;2023-07-31T09:46:23;4.80;;;2.00;;
16735;SDS011;17990;49.548;9.730;2023-07-31T09:48:54;3.17;;;1.80;;
16735;SDS011;17990;49.548;9.730;2023-07-31T09:51:34;6.07;;;2.30;;
16735;SDS011;17990;49.548;9.730;2023-07-31T09:54:04;3.95;;;1.98;;
16735;SDS011;17990;49.548;9.730;2023-07-31T09:56:36;4.95;;;1.95;;
16735;SDS011;17990;49.548;9.730;2023-07-31T09:59:08;4.57;;;1.73;;
16735;SDS011;17990;49.548;9.730;2023-07-31T10:01:37;5.65;;;2.20;;
16735;SDS011;17990;49.548;9.730;2023-07-31T10:04:05;5.97;;;2.33;;
16735;SDS011;17990;49.548;9.730;2023-07-31T10:06:34;5.97;;;1.92;;
16735;SDS011;17990;49.548;9.730;2023-07-31T10:09:02;3.55;;;1.70;;
16735;SDS011;17990;49.548;9.730;2023-07-31T10:11:31;6.65;;;2.17;;
16735;SDS011;17990;49.548;9.730;2023-07-31T10:14:02;4.88;;;2.10;;
16735;SDS011;17990;49.548;9.730;2023-07-31T10:16:31;6.72;;;2.35;;
16735;SDS011;17990;49.548;9.730;2023-07-31T10:18:58;10.15;;;2.25;;
16735;SDS011;17990;49.548;9.730;2023-07-31T10:21:25;8.15;;;2.45;;
16735;SDS011;17990;49.548;9.730;2023-07-31T10:23:52;6.00;;;1.95;;
16735;SDS011;17990;49.548;9.730;2023-07-31T10:26:20;4.35;;;2.17;;
16735;SDS011;17990;49.548;9.730;2023-07-31T10:28:50;5.47;;;2.28;;
16735;SDS011;17990;49.548;9.730;2023-07-31T10:31:19;6.82;;;2.67;;
16735;SDS011;17990;49.548;9.730;2023-07-31T10:33:47;4.47;;;2.10;;
16735;SDS011;17990;49.548;9.730;2023-07-31T10:36:16;4.80;;;1.98;;
16735;SDS011;17990;49.548;9.730;2023-07-31T10:38:44;4.07;;;2.22;;
16735;SDS011;17990;49.548;9.730;2023-07-31T10:41:11;3.78;;;2.10;;
16735;SDS011;17990;49.548;9.730;2023-07-31T10:43:38;5.57;;;2.20;;
16735;SDS011;17990;49.548;9.730;2023-07-31T10:46:09;5.22;;;2.20;;
16735;SDS011;17990;49.548;9.730;2023-07-31T10:48:39;7.20;;;2.00;;
16735;SDS011;17990;49.548;9.730;2023-07-31T10:51:08;4.55;;;2.30;;
16735;SDS011;17990;49.548;9.730;2023-07-31T10:53:37;4.05;;;2.28;;
16735;SDS011;17990;49.548;9.730;2023-07-31T10:56:04;5.07;;;2.17;;
16735;SDS011;17990;49.548;9.730;2023-07-31T10:58:35;4.25;;;2.33;;
16735;SDS011;17990;49.548;9.730;2023-07-31T11:01:03;4.60;;;2.28;;
16735;SDS011;17990;49.548;9.730;2023-07-31T11:06:17;4.65;;;2.35;;
16735;SDS011;17990;49.548;9.730;2023-07-31T11:08:45;4.45;;;2.20;;
16735;SDS011;17990;49.548;9.730;2023-07-31T11:11:13;4.20;;;1.92;;
16735;SDS011;17990;49.548;9.730;2023-07-31T11:13:42;5.57;;;2.30;;
16735;SDS011;17990;49.548;9.730;2023-07-31T11:16:11;5.00;;;1.95;;
16735;SDS011;17990;49.548;9.730;2023-07-31T11:18:39;6.07;;;2.38;;
16735;SDS011;17990;49.548;9.730;2023-07-31T11:21:08;3.45;;;2.20;;
16735;SDS011;17990;49.548;9.730;2023-07-31T11:23:37;4.43;;;2.20;;
16735;SDS011;17990;49.548;9.730;2023-07-31T11:26:04;4.25;;;2.20;;
16735;SDS011;17990;49.548;9.730;2023-07-31T11:28:32;4.65;;;1.92;;
16735;SDS011;17990;49.548;9.730;2023-07-31T11:31:00;6.25;;;2.53;;
16735;SDS011;17990;49.548;9.730;2023-07-31T11:33:28;3.60;;;2.00;;
16735;SDS011;17990;49.548;9.730;2023-07-31T11:35:54;4.70;;;2.38;;
16735;SDS011;17990;49.548;9.730;2023-07-31T11:38:23;4.65;;;2.45;;
16735;SDS011;17990;49.548;9.730;2023-07-31T11:40:50;7.38;;;2.42;;
16735;SDS011;17990;49.548;9.730;2023-07-31T11:43:18;4.53;;;2.50;;
16735;SDS011;17990;49.548;9.730;2023-07-31T11:45:46;5.03;;;2.20;;
16735;SDS011;17990;49.548;9.730;2023-07-31T11:48:21;4.20;;;2.10;;
16735;SDS011;17990;49.548;9.730;2023-07-31T11:50:49;5.95;;;2.40;;
16735;SDS011;17990;49.548;9.730;2023-07-31T11:53:17;6.28;;;2.20;;
16735;SDS011;17990;49.548;9.730;2023-07-31T11:55:48;3.65;;;2.33;;
16735;SDS011;17990;49.548;9.730;2023-07-31T11:58:16;3.70;;;2.20;;
16735;SDS011;17990;49.548;9.730;2023-07-31T12:00:44;8.57;;;3.15;;
16735;SDS011;17990;49.548;9.730;2023-07-31T12:03:11;4.28;;;2.17;;
16735;SDS011;17990;49.548;9.730;2023-07-31T12:05:38;5.18;;;2.40;;
16735;SDS011;17990;49.548;9.730;2023-07-31T12:08:08;5.10;;;2.40;;
16735;SDS011;17990;49.548;9.730;2023-07-31T12:10:37;6.63;;;2.78;;
16735;SDS011;17990;49.548;9.730;2023-07-31T12:13:07;5.03;;;2.50;;
16735;SDS011;17990;49.548;9.730;2023-07-31T12:15:38;4.90;;;2.83;;
16735;SDS011;17990;49.548;9.730;2023-07-31T12:18:07;6.00;;;2.15;;
16735;SDS011;17990;49.548;9.730;2023-07-31T12:20:35;4.55;;;2.28;;
16735;SDS011;17990;49.548;9.730;2023-07-31T12:23:06;4.70;;;2.13;;
16735;SDS011;17990;49.548;9.730;2023-07-31T12:25:39;4.55;;;2.08;;
16735;SDS011;17990;49.548;9.730;2023-07-31T12:28:07;4.75;;;2.55;;
16735;SDS011;17990;49.548;9.730;2023-07-31T12:30:36;7.68;;;2.33;;
16735;SDS011;17990;49.548;9.730;2023-07-31T12:33:05;4.00;;;1.98;;
16735;SDS011;17990;49.548;9.730;2023-07-31T12:35:36;5.30;;;2.30;;
16735;SDS011;17990;49.548;9.730;2023-07-31T12:38:03;6.53;;;2.50;;
16735;SDS011;17990;49.548;9.730;2023-07-31T12:40:30;4.43;;;2.17;;
16735;SDS011;17990;49.548;9.730;2023-07-31T12:42:57;5.63;;;2.28;;
16735;SDS011;17990;49.548;9.730;2023-07-31T12:45:25;3.30;;;2.30;;
16735;SDS011;17990;49.548;9.730;2023-07-31T12:47:52;5.10;;;3.10;;
16735;SDS011;17990;49.548;9.730;2023-07-31T12:50:19;5.32;;;2.40;;
16735;SDS011;17990;49.548;9.730;2023-07-31T12:52:45;3.92;;;2.33;;
16735;SDS011;17990;49.548;9.730;2023-07-31T12:55:12;5.97;;;2.28;;
16735;SDS011;17990;49.548;9.730;2023-07-31T12:57:39;4.03;;;2.30;;
16735;SDS011;17990;49.548;9.730;2023-07-31T13:00:07;6.53;;;2.50;;
16735;SDS011;17990;49.548;9.730;2023-07-31T13:02:36;5.97;;;2.20;;
16735;SDS011;17990;49.548;9.730;2023-07-31T13:05:02;3.90;;;2.28;;
16735;SDS011;17990;49.548;9.730;2023-07-31T13:07:30;3.90;;;2.10;;
16735;SDS011;17990;49.548;9.730;2023-07-31T13:09:57;4.22;;;2.25;;
16735;SDS011;17990;49.548;9.730;2023-07-31T13:12:23;7.63;;;2.40;;
16735;SDS011;17990;49.548;9.730;2023-07-31T13:14:50;3.40;;;2.15;;
16735;SDS011;17990;49.548;9.730;2023-07-31T13:17:17;8.93;;;2.63;;
16735;SDS011;17990;49.548;9.730;2023-07-31T13:19:45;7.00;;;2.50;;
16735;SDS011;17990;49.548;9.730;2023-07-31T13:22:12;5.05;;;2.25;;
16735;SDS011;17990;49.548;9.730;2023-07-31T13:24:39;5.70;;;2.10;;
16735;SDS011;17990;49.548;9.730;2023-07-31T13:27:05;6.15;;;2.40;;
16735;SDS011;17990;49.548;9.730;2023-07-31T13:29:32;6.65;;;2.35;;
16735;SDS011;17990;49.548;9.730;2023-07-31T13:31:59;5.25;;;2.20;;
16735;SDS011;17990;49.548;9.730;2023-07-31T13:34:25;3.72;;;1.90;;
16735;SDS011;17990;49.548;9.730;2023-07-31T13:36:54;6.25;;;2.40;;
16735;SDS011;17990;49.548;9.730;2023-07-31T13:39:21;4.55;;;2.30;;
16735;SDS011;17990;49.548;9.730;2023-07-31T13:41:48;5.20;;;2.53;;
16735;SDS011;17990;49.548;9.730;2023-07-31T13:44:15;5.88;;;2.25;;
16735;SDS011;17990;49.548;9.730;2023-07-31T13:46:41;4.35;;;2.00;;
16735;SDS011;17990;49.548;9.730;2023-07-31T13:49:08;5.57;;;2.60;;
16735;SDS011;17990;49.548;9.730;2023-07-31T13:51:35;5.07;;;2.00;;
16735;SDS011;17990;49.548;9.730;2023-07-31T13:54:05;4.28;;;2.38;;
16735;SDS011;17990;49.548;9.730;2023-07-31T13:56:32;4.22;;;2.10;;
16735;SDS011;17990;49.548;9.730;2023-07-31T13:58:59;4.30;;;2.17;;
16735;SDS011;17990;49.548;9.730;2023-07-31T14:01:27;5.22;;;2.45;;
16735;SDS011;17990;49.548;9.730;2023-07-31T14:03:53;3.92;;;2.13;;
16735;SDS011;17990;49.548;9.730;2023-07-31T14:06:20;3.28;;;1.85;;
16735;SDS011;17990;49.548;9.730;2023-07-31T14:08:47;5.03;;;2.28;;
16735;SDS011;17990;49.548;9.730;2023-07-31T14:11:15;4.57;;;2.10;;
16735;SDS011;17990;49.548;9.730;2023-07-31T14:13:42;4.13;;;2.17;;
16735;SDS011;17990;49.548;9.730;2023-07-31T14:16:09;5.65;;;2.40;;
16735;SDS011;17990;49.548;9.730;2023-07-31T14:18:35;6.95;;;2.50;;
16735;SDS011;17990;49.548;9.730;2023-07-31T14:21:02;3.63;;;2.13;;
16735;SDS011;17990;49.548;9.730;2023-07-31T14:23:29;6.32;;;2.53;;
16735;SDS011;17990;49.548;9.730;2023-07-31T14:25:56;5.57;;;2.38;;
16735;SDS011;17990;49.548;9.730;2023-07-31T14:28:24;2.75;;;2.08;;
16735;SDS011;17990;49.548;9.730;2023-07-31T14:30:50;3.42;;;2.03;;
16735;SDS011;17990;49.548;9.730;2023-07-31T14:33:17;6.75;;;2.13;;
16735;SDS011;17990;49.548;9.730;2023-07-31T14:35:44;8.40;;;2.35;;
16735;SDS011;17990;49.548;9.730;2023-07-31T14:38:10;6.78;;;2.20;;
16735;SDS011;17990;49.548;9.730;2023-07-31T14:40:37;5.35;;;2.50;;
16735;SDS011;17990;49.548;9.730;2023-07-31T14:43:04;4.93;;;2.05;;
16735;SDS011;17990;49.548;9.730;2023-07-31T14:45:32;5.22;;;2.25;;
16735;SDS011;17990;49.548;9.730;2023-07-31T14:47:59;4.30;;;2.03;;
16735;SDS011;17990;49.548;9.730;2023-07-31T14:50:26;4.03;;;2.28;;
16735;SDS011;17990;49.548;9.730;2023-07-31T14:52:53;4.13;;;2.00;;